createdAt,value
2018-12-30T00:00:18.385Z,15.38
2018-12-30T00:02:47.704Z,25.75
2018-12-30T00:05:17.345Z,19.70
2018-12-30T00:07:46.700Z,24.43
2018-12-30T00:10:16.008Z,19.90
2018-12-30T00:12:45.258Z,16.77
2018-12-30T00:15:14.906Z,21.33
2018-12-30T00:17:44.159Z,23.85
2018-12-30T00:20:13.470Z,18.50
2018-12-30T00:22:42.991Z,27.73
2018-12-30T00:25:12.282Z,28.40
2018-12-30T00:27:41.519Z,8.85
2018-12-30T00:30:11.292Z,15.90
2018-12-30T00:32:40.548Z,15.75
2018-12-30T00:35:09.858Z,19.55
2018-12-30T00:37:39.155Z,14.20
2018-12-30T00:40:08.619Z,33.50
2018-12-30T00:42:38.183Z,9.63
2018-12-30T00:45:07.437Z,8.95
2018-12-30T00:47:36.778Z,17.52
2018-12-30T00:50:06.106Z,15.23
2018-12-30T00:52:35.447Z,13.15
2018-12-30T00:55:04.943Z,19.95
2018-12-30T00:57:34.291Z,9.43
2018-12-30T01:00:03.556Z,19.62
2018-12-30T01:02:32.874Z,8.40
2018-12-30T01:05:02.122Z,15.93
2018-12-30T01:07:31.415Z,12.03
2018-12-30T01:10:00.964Z,17.62
2018-12-30T01:12:30.211Z,9.60
2018-12-30T01:14:59.752Z,27.40
2018-12-30T01:17:29.019Z,19.07
2018-12-30T01:19:58.279Z,12.35
2018-12-30T01:22:28.153Z,10.35
2018-12-30T01:24:57.390Z,17.55
2018-12-30T01:27:26.663Z,24.95
2018-12-30T01:29:55.967Z,12.55
2018-12-30T01:32:25.206Z,20.48
2018-12-30T01:34:54.522Z,8.40
2018-12-30T01:37:24.080Z,18.25
2018-12-30T01:39:53.402Z,6.83
2018-12-30T01:42:22.656Z,20.15
2018-12-30T01:44:52.044Z,13.03
2018-12-30T01:47:21.268Z,8.78
2018-12-30T01:49:50.555Z,9.70
2018-12-30T01:52:19.896Z,12.55
2018-12-30T01:54:49.149Z,21.05
2018-12-30T01:57:18.369Z,16.60
2018-12-30T01:59:47.737Z,12.58
2018-12-30T02:02:16.984Z,26.02
2018-12-30T02:04:46.199Z,9.80
2018-12-30T02:07:15.493Z,13.78
2018-12-30T02:09:44.745Z,14.85
2018-12-30T02:12:14.163Z,17.02
2018-12-30T02:14:43.482Z,11.57
2018-12-30T02:17:12.737Z,10.30
2018-12-30T02:19:41.959Z,8.50
2018-12-30T02:22:11.232Z,16.10
2018-12-30T02:24:40.475Z,11.45
2018-12-30T02:27:09.743Z,7.90
2018-12-30T02:29:39.377Z,11.68
2018-12-30T02:32:08.610Z,17.12
2018-12-30T02:34:37.866Z,17.77
2018-12-30T02:37:07.151Z,10.05
2018-12-30T02:39:36.398Z,26.90
2018-12-30T02:42:05.680Z,15.93
2018-12-30T02:44:35.041Z,17.35
2018-12-30T02:47:04.279Z,18.40
2018-12-30T03:28:13.939Z,9.65
2018-12-30T03:30:43.290Z,10.50
2018-12-30T03:33:12.518Z,8.88
2018-12-30T03:35:41.761Z,15.25
2018-12-30T03:38:11.015Z,11.73
2018-12-30T03:40:40.199Z,12.70
2018-12-30T03:43:09.512Z,18.15
2018-12-30T03:45:38.690Z,20.75
2018-12-30T03:48:07.951Z,12.33
2018-12-30T03:50:37.165Z,18.37
2018-12-30T03:53:06.568Z,14.55
2018-12-30T03:55:35.865Z,5.75
2018-12-30T03:58:05.373Z,10.35
2018-12-30T04:00:34.648Z,13.93
2018-12-30T04:03:03.897Z,12.05
2018-12-30T04:05:33.141Z,7.42
2018-12-30T04:08:02.422Z,22.05
2018-12-30T04:10:31.644Z,20.45
2018-12-30T04:13:00.893Z,12.03
2018-12-30T04:15:30.240Z,15.15
2018-12-30T04:17:59.448Z,10.85
2018-12-30T04:20:28.708Z,10.95
2018-12-30T04:22:58.002Z,12.85
2018-12-30T04:25:27.375Z,14.63
2018-12-30T04:27:56.632Z,17.30
2018-12-30T04:30:25.978Z,12.73
2018-12-30T04:32:55.234Z,20.48
2018-12-30T04:35:24.410Z,3.90
2018-12-30T04:37:53.701Z,12.05
2018-12-30T04:40:22.872Z,15.35
2018-12-30T04:42:52.202Z,13.60
2018-12-30T04:45:21.516Z,7.47
2018-12-30T04:47:50.751Z,13.15
2018-12-30T04:50:20.074Z,11.05
2018-12-30T04:52:49.293Z,11.70
2018-12-30T04:55:18.535Z,15.75
2018-12-30T04:57:47.864Z,24.82
2018-12-30T05:00:17.216Z,9.55
2018-12-30T05:02:46.528Z,19.60
2018-12-30T05:05:15.830Z,11.90
2018-12-30T05:07:45.375Z,17.82
2018-12-30T05:10:14.541Z,14.35
2018-12-30T05:12:43.866Z,10.03
2018-12-30T05:15:13.135Z,7.92
2018-12-30T05:17:42.444Z,14.73
2018-12-30T05:20:11.622Z,15.05
2018-12-30T05:22:40.843Z,15.75
2018-12-30T05:25:10.098Z,9.28
2018-12-30T05:27:39.430Z,7.83
2018-12-30T05:30:08.729Z,14.78
2018-12-30T05:32:37.901Z,10.82
2018-12-30T05:35:07.165Z,5.08
2018-12-30T05:37:36.402Z,21.85
2018-12-30T05:40:05.603Z,12.13
2018-12-30T05:42:34.773Z,12.00
2018-12-30T05:45:04.065Z,22.00
2018-12-30T05:47:33.385Z,15.18
2018-12-30T05:50:02.575Z,11.65
2018-12-30T05:52:31.984Z,11.48
2018-12-30T05:55:01.237Z,4.92
2018-12-30T05:57:30.538Z,16.80
2018-12-30T05:59:59.847Z,14.33
2018-12-30T06:02:29.109Z,7.87
2018-12-30T06:04:58.308Z,8.68
2018-12-30T06:07:27.480Z,9.95
2018-12-30T06:09:56.686Z,18.12
2018-12-30T06:12:25.937Z,13.08
2018-12-30T06:14:55.162Z,14.53
2018-12-30T06:17:24.329Z,17.20
2018-12-30T06:19:53.566Z,11.33
2018-12-30T06:22:22.780Z,27.07
2018-12-30T06:24:52.032Z,14.15
2018-12-30T06:27:21.214Z,13.22
2018-12-30T06:29:50.522Z,17.07
2018-12-30T06:32:19.742Z,5.47
2018-12-30T06:34:48.935Z,10.58
2018-12-30T06:37:18.142Z,9.15
2018-12-30T06:39:47.466Z,12.03
2018-12-30T06:42:19.988Z,8.85
2018-12-30T06:44:49.428Z,13.15
2018-12-30T06:47:18.632Z,18.15
2018-12-30T06:49:47.902Z,16.45
2018-12-30T06:52:17.165Z,21.87
2018-12-30T06:54:46.524Z,20.08
2018-12-30T06:57:15.801Z,19.23
2018-12-30T06:59:45.079Z,21.50
2018-12-30T07:02:14.773Z,24.80
2018-12-30T07:04:44.020Z,25.30
2018-12-30T07:07:13.397Z,17.10
2018-12-30T07:09:42.569Z,21.30
2018-12-30T07:12:11.956Z,35.28
2018-12-30T07:14:41.215Z,21.42
2018-12-30T07:17:10.409Z,17.20
2018-12-30T07:19:39.597Z,9.85
2018-12-30T07:22:08.951Z,17.30
2018-12-30T07:24:38.310Z,10.98
2018-12-30T07:27:07.763Z,18.25
2018-12-30T07:29:37.110Z,24.27
2018-12-30T07:32:06.285Z,22.30
2018-12-30T07:34:35.663Z,15.78
2018-12-30T07:37:04.918Z,18.27
2018-12-30T07:39:34.156Z,19.32
2018-12-30T07:42:03.347Z,24.20
2018-12-30T07:44:32.619Z,21.15
2018-12-30T07:47:01.812Z,14.03
2018-12-30T07:49:31.040Z,27.17
2018-12-30T07:52:00.261Z,24.27
2018-12-30T07:54:29.508Z,13.55
2018-12-30T07:56:58.724Z,14.55
2018-12-30T07:59:27.951Z,19.48
2018-12-30T08:01:57.211Z,41.33
2018-12-30T08:04:26.396Z,20.90
2018-12-30T08:06:55.699Z,17.45
2018-12-30T08:09:24.943Z,14.95
2018-12-30T08:11:54.195Z,25.77
2018-12-30T08:14:23.554Z,14.55
2018-12-30T08:16:52.819Z,20.27
2018-12-30T08:19:22.081Z,14.10
2018-12-30T08:21:51.393Z,23.85
2018-12-30T08:24:20.649Z,23.50
2018-12-30T08:26:49.909Z,17.95
2018-12-30T08:29:19.309Z,27.98
2018-12-30T08:31:48.757Z,13.98
2018-12-30T08:34:18.044Z,14.00
2018-12-30T08:36:47.383Z,28.15
2018-12-30T08:39:16.677Z,34.30
2018-12-30T08:41:46.062Z,19.20
2018-12-30T08:44:15.389Z,24.52
2018-12-30T08:46:44.658Z,30.80
2018-12-30T08:49:13.920Z,18.57
2018-12-30T08:51:43.249Z,21.75
2018-12-30T08:54:13.447Z,34.85
2018-12-30T08:56:42.639Z,15.23
2018-12-30T08:59:11.839Z,21.35
2018-12-30T09:01:41.095Z,14.73
2018-12-30T09:04:10.283Z,26.27
2018-12-30T09:06:39.569Z,29.75
2018-12-30T09:09:09.672Z,27.40
2018-12-30T09:11:38.991Z,27.98
2018-12-30T09:14:08.183Z,26.87
2018-12-30T09:16:37.386Z,24.20
2018-12-30T09:19:06.625Z,22.40
2018-12-30T09:21:36.285Z,32.50
2018-12-30T09:24:05.562Z,19.95
2018-12-30T09:26:34.809Z,27.05
2018-12-30T09:29:04.156Z,36.35
2018-12-30T09:31:33.451Z,19.65
2018-12-30T09:34:02.812Z,31.40
2018-12-30T09:36:32.453Z,33.08
2018-12-30T09:39:01.750Z,27.35
2018-12-30T09:41:31.050Z,19.57
2018-12-30T09:44:00.441Z,25.12
2018-12-30T09:46:29.986Z,28.47
2018-12-30T09:48:59.280Z,33.13
2018-12-30T09:51:28.587Z,18.98
2018-12-30T09:53:57.864Z,36.45
2018-12-30T09:56:27.324Z,27.55
2018-12-30T09:59:02.617Z,23.20
2018-12-30T10:01:31.830Z,23.80
2018-12-30T10:04:01.109Z,18.23
2018-12-30T10:06:30.566Z,31.95
2018-12-30T10:08:59.914Z,17.70
2018-12-30T10:11:29.175Z,23.35
2018-12-30T10:13:58.564Z,21.87
2018-12-30T10:16:29.406Z,23.60
2018-12-30T10:19:02.101Z,25.70
2018-12-30T10:21:31.788Z,22.07
2018-12-30T10:24:01.141Z,26.42
2018-12-30T10:26:30.370Z,23.05
2018-12-30T10:28:59.740Z,23.67
2018-12-30T10:31:28.977Z,15.90
2018-12-30T10:33:58.481Z,22.02
2018-12-30T10:36:27.834Z,23.22
2018-12-30T10:38:57.232Z,21.42
2018-12-30T10:41:26.585Z,20.55
2018-12-30T10:43:55.894Z,22.77
2018-12-30T10:46:25.276Z,23.83
2018-12-30T10:48:54.616Z,25.05
2018-12-30T10:51:23.880Z,16.90
2018-12-30T10:54:00.475Z,20.68
2018-12-30T10:56:24.379Z,30.92
2018-12-30T10:58:53.663Z,32.40
2018-12-30T11:01:22.898Z,24.67
2018-12-30T11:03:52.179Z,37.13
2018-12-30T11:06:21.779Z,17.35
2018-12-30T11:08:51.069Z,21.60
2018-12-30T11:11:20.364Z,10.20
2018-12-30T11:13:49.803Z,23.20
2018-12-30T11:16:19.084Z,17.85
2018-12-30T11:18:48.370Z,29.52
2018-12-30T11:21:17.626Z,12.58
2018-12-30T11:23:46.832Z,19.55
2018-12-30T11:26:16.185Z,22.75
2018-12-30T11:28:45.528Z,16.93
2018-12-30T11:31:15.028Z,17.65
2018-12-30T11:33:44.256Z,18.37
2018-12-30T11:36:13.551Z,16.00
2018-12-30T11:38:45.294Z,21.97
2018-12-30T11:41:14.702Z,18.75
2018-12-30T11:43:44.283Z,21.68
2018-12-30T11:46:13.557Z,17.75
2018-12-30T11:48:42.819Z,22.42
2018-12-30T11:51:12.074Z,14.63
2018-12-30T11:53:41.328Z,19.92
2018-12-30T11:56:10.609Z,17.45
2018-12-30T11:58:39.894Z,16.17
2018-12-30T12:01:09.154Z,20.72
2018-12-30T12:03:38.407Z,20.75
2018-12-30T12:06:07.690Z,15.72
2018-12-30T12:08:37.088Z,15.85
2018-12-30T12:11:06.429Z,24.57
2018-12-30T12:13:35.796Z,25.35
2018-12-30T12:16:05.157Z,20.80
2018-12-30T12:18:34.431Z,17.42
2018-12-30T12:21:03.614Z,16.42
2018-12-30T12:23:32.964Z,16.62
2018-12-30T12:26:02.443Z,14.18
2018-12-30T12:28:31.633Z,16.23
2018-12-30T12:31:00.840Z,12.07
2018-12-30T12:33:30.400Z,14.03
2018-12-30T12:35:59.591Z,22.00
2018-12-30T12:38:28.788Z,20.60
2018-12-30T12:40:58.093Z,20.23
2018-12-30T12:43:27.306Z,23.32
2018-12-30T12:45:56.849Z,17.70
2018-12-30T12:48:26.250Z,27.37
2018-12-30T12:50:55.727Z,26.35
2018-12-30T12:53:25.280Z,28.92
2018-12-30T12:55:54.573Z,21.65
2018-12-30T12:58:24.080Z,30.17
2018-12-30T13:00:53.349Z,17.20
2018-12-30T13:03:22.744Z,31.02
2018-12-30T13:05:52.032Z,24.72
2018-12-30T13:08:21.490Z,23.10
2018-12-30T13:10:50.896Z,25.80
2018-12-30T13:13:20.157Z,29.15
2018-12-30T13:15:49.461Z,25.25
2018-12-30T13:18:18.916Z,23.32
2018-12-30T13:20:48.203Z,34.83
2018-12-30T13:23:17.671Z,26.05
2018-12-30T13:25:47.315Z,33.73
2018-12-30T13:28:16.783Z,40.45
2018-12-30T13:30:46.242Z,38.02
2018-12-30T13:33:15.927Z,31.52
2018-12-30T13:35:45.419Z,24.57
2018-12-30T13:38:29.577Z,22.82
2018-12-30T13:40:58.928Z,39.35
2018-12-30T13:43:28.477Z,27.62
2018-12-30T13:45:57.845Z,31.75
2018-12-30T13:48:27.018Z,37.20
2018-12-30T13:50:56.296Z,23.90
2018-12-30T13:53:25.500Z,37.28
2018-12-30T13:55:54.700Z,28.38
2018-12-30T13:58:23.872Z,36.45
2018-12-30T14:00:53.113Z,39.92
2018-12-30T14:03:22.474Z,31.52
2018-12-30T14:05:51.781Z,37.58
2018-12-30T14:08:21.013Z,41.40
2018-12-30T14:10:50.209Z,39.03
2018-12-30T14:13:19.497Z,32.78
2018-12-30T14:15:51.076Z,38.35
2018-12-30T14:18:19.816Z,30.10
2018-12-30T14:20:49.083Z,32.00
2018-12-30T14:23:18.298Z,28.62
2018-12-30T14:25:47.554Z,42.45
2018-12-30T14:28:16.732Z,31.95
2018-12-30T14:30:46.017Z,36.83
2018-12-30T14:33:15.226Z,28.12
2018-12-30T14:35:44.485Z,53.68
2018-12-30T14:38:13.743Z,39.53
2018-12-30T14:40:42.937Z,44.65
2018-12-30T14:43:12.252Z,38.80
2018-12-30T14:45:41.607Z,49.38
2018-12-30T14:48:10.895Z,36.10
2018-12-30T14:50:40.194Z,49.70
2018-12-30T14:53:18.843Z,40.65
2018-12-30T14:55:40.557Z,42.95
2018-12-30T14:58:09.810Z,39.40
2018-12-30T15:00:39.042Z,35.55
2018-12-30T15:03:08.244Z,35.65
2018-12-30T15:05:37.558Z,48.30
2018-12-30T15:08:06.787Z,49.55
2018-12-30T15:10:36.119Z,44.67
2018-12-30T15:13:05.436Z,52.33
2018-12-30T15:15:34.985Z,43.05
2018-12-30T15:18:04.161Z,40.95
2018-12-30T15:20:33.360Z,51.30
2018-12-30T15:23:02.725Z,61.75
2018-12-30T15:25:32.001Z,44.90
2018-12-30T15:28:01.197Z,57.10
2018-12-30T15:30:30.570Z,66.10
2018-12-30T15:32:59.961Z,58.55
2018-12-30T15:35:29.294Z,58.30
2018-12-30T15:37:58.598Z,53.90
2018-12-30T15:40:28.254Z,57.10
2018-12-30T15:42:57.518Z,65.52
2018-12-30T15:45:26.790Z,57.17
2018-12-30T15:47:55.990Z,58.75
2018-12-30T15:50:25.316Z,93.78
2018-12-30T15:52:54.604Z,64.05
2018-12-30T15:55:23.803Z,55.15
2018-12-30T15:57:53.064Z,55.85
2018-12-30T16:00:22.368Z,61.92
2018-12-30T16:02:51.551Z,48.45
2018-12-30T16:05:20.832Z,48.48
2018-12-30T16:07:50.169Z,67.50
2018-12-30T16:10:19.495Z,61.20
2018-12-30T16:13:27.477Z,61.48
2018-12-30T16:15:56.652Z,66.47
2018-12-30T16:18:25.980Z,69.67
2018-12-30T16:20:55.252Z,76.80
2018-12-30T16:23:24.609Z,77.10
2018-12-30T16:25:53.792Z,83.07
2018-12-30T16:28:23.067Z,86.08
2018-12-30T16:30:52.316Z,67.32
2018-12-30T16:33:21.558Z,73.67
2018-12-30T16:35:50.830Z,67.15
2018-12-30T16:38:20.012Z,82.08
2018-12-30T16:40:49.420Z,69.75
2018-12-30T16:43:19.278Z,79.05
2018-12-30T16:45:48.596Z,76.75
2018-12-30T16:48:17.855Z,73.87
2018-12-30T16:50:47.162Z,83.58
2018-12-30T16:53:16.417Z,79.25
2018-12-30T16:55:45.742Z,86.47
2018-12-30T16:58:15.028Z,85.03
2018-12-30T17:00:44.307Z,79.50
2018-12-30T17:03:13.556Z,105.65
2018-12-30T17:05:42.793Z,120.13
2018-12-30T17:08:12.072Z,102.97
2018-12-30T17:10:41.357Z,104.03
2018-12-30T17:13:10.795Z,91.95
2018-12-30T17:15:40.005Z,115.47
2018-12-30T17:18:09.256Z,100.78
2018-12-30T17:20:38.546Z,96.30
2018-12-30T17:23:07.793Z,93.25
2018-12-30T17:25:43.078Z,108.25
2018-12-30T17:28:07.987Z,109.25
2018-12-30T17:30:37.242Z,109.37
2018-12-30T17:33:06.494Z,98.50
2018-12-30T17:35:35.830Z,113.30
2018-12-30T17:38:05.200Z,92.08
2018-12-30T17:40:38.388Z,115.08
2018-12-30T17:43:05.408Z,112.25
2018-12-30T17:48:39.205Z,114.92
2018-12-30T17:51:08.469Z,119.60
2018-12-30T17:53:37.743Z,108.32
2018-12-30T17:56:07.349Z,100.75
2018-12-30T17:58:37.063Z,110.00
2018-12-30T18:01:06.404Z,105.75
2018-12-30T18:03:35.798Z,115.90
2018-12-30T18:06:05.127Z,115.05
2018-12-30T18:08:34.377Z,126.02
2018-12-30T18:11:03.805Z,108.70
2018-12-30T18:13:33.193Z,142.57
2018-12-30T18:16:02.431Z,119.50
2018-12-30T18:18:31.636Z,126.05
2018-12-30T18:21:00.944Z,138.40
2018-12-30T18:23:30.310Z,112.72
2018-12-30T18:25:59.592Z,117.15
2018-12-30T18:28:46.780Z,118.10
2018-12-30T18:31:33.970Z,115.67
2018-12-30T18:34:03.335Z,142.00
2018-12-30T18:36:50.660Z,137.68
2018-12-30T18:39:19.841Z,139.22
2018-12-30T18:42:06.822Z,139.57
2018-12-30T18:45:11.978Z,156.82
2018-12-30T18:47:41.300Z,138.20
2018-12-30T18:50:10.604Z,143.72
2018-12-30T18:52:57.724Z,149.95
2018-12-30T18:55:27.209Z,130.75
2018-12-30T18:58:14.219Z,158.12
2018-12-30T19:01:37.319Z,150.85
2018-12-30T19:04:06.605Z,166.92
2018-12-30T19:06:35.945Z,157.57
2018-12-30T19:09:42.417Z,157.27
2018-12-30T19:12:29.535Z,180.95
2018-12-30T19:15:16.505Z,144.62
2018-12-30T19:17:45.765Z,166.50
2018-12-30T19:20:32.757Z,175.18
2018-12-30T19:23:19.676Z,182.65
2018-12-30T19:25:48.899Z,178.50
2018-12-30T19:28:53.527Z,162.47
2018-12-30T19:31:22.773Z,176.97
2018-12-30T19:34:27.819Z,194.97
2018-12-30T19:36:57.292Z,212.90
2018-12-30T19:39:44.508Z,185.60
2018-12-30T19:42:13.766Z,205.60
2018-12-30T19:59:46.732Z,187.15
2018-12-30T20:02:16.421Z,182.02
2018-12-30T20:04:46.476Z,189.22
2018-12-30T20:07:16.512Z,178.90
2018-12-30T20:09:46.310Z,186.60
2018-12-30T20:12:16.493Z,157.43
2018-12-30T20:14:46.361Z,193.47
2018-12-30T20:17:16.643Z,173.90
2018-12-30T20:19:46.643Z,174.15
2018-12-30T20:22:16.889Z,162.25
2018-12-30T20:24:46.926Z,159.82
2018-12-30T20:27:16.963Z,169.28
2018-12-30T20:29:46.963Z,148.53
2018-12-30T20:32:16.902Z,160.07
2018-12-30T20:34:47.003Z,158.07
2018-12-30T20:37:17.249Z,148.72
2018-12-30T20:39:47.026Z,159.50
2018-12-30T20:42:16.892Z,164.97
2018-12-30T20:44:46.982Z,145.60
2018-12-30T20:47:16.746Z,171.45
2018-12-30T20:49:46.125Z,153.55
2018-12-30T20:52:18.657Z,151.27
2018-12-30T20:54:48.089Z,156.78
2018-12-30T20:57:17.466Z,168.45
2018-12-30T20:59:46.758Z,161.90
2018-12-30T21:02:15.956Z,182.70
2018-12-30T21:04:45.141Z,139.43
2018-12-30T21:07:14.377Z,159.95
2018-12-30T21:09:43.633Z,161.47
2018-12-30T21:12:14.610Z,164.82
2018-12-30T21:14:45.505Z,151.57
2018-12-30T21:17:14.773Z,147.25
2018-12-30T21:19:43.973Z,163.45
2018-12-30T21:22:13.265Z,153.87
2018-12-30T21:24:43.326Z,175.18
2018-12-30T21:27:12.588Z,160.60
2018-12-30T21:29:41.966Z,154.72
2018-12-30T21:32:11.395Z,169.93
2018-12-30T21:34:40.626Z,154.75
2018-12-30T21:37:10.040Z,155.12
2018-12-30T21:39:39.383Z,172.43
2018-12-30T21:42:08.726Z,163.72
2018-12-30T21:44:38.077Z,170.00
2018-12-30T21:47:07.319Z,150.55
2018-12-30T21:49:36.513Z,167.35
2018-12-30T21:52:05.827Z,169.53
2018-12-30T21:54:35.091Z,192.62
2018-12-30T21:57:04.366Z,176.63
2018-12-30T21:59:33.635Z,175.80
2018-12-30T22:02:02.890Z,198.17
2018-12-30T22:04:32.076Z,190.62
2018-12-30T22:07:01.342Z,171.13
2018-12-30T22:09:30.616Z,190.80
2018-12-30T22:11:59.888Z,180.00
2018-12-30T22:14:29.159Z,194.72
2018-12-30T22:16:58.530Z,192.60
2018-12-30T22:19:27.798Z,170.85
2018-12-30T22:21:57.076Z,172.50
2018-12-30T22:24:26.355Z,178.02
2018-12-30T22:26:55.675Z,207.52
2018-12-30T22:29:24.890Z,191.68
2018-12-30T22:31:54.144Z,197.60
2018-12-30T22:34:23.571Z,192.53
2018-12-30T22:36:52.887Z,177.70
2018-12-30T22:39:22.057Z,179.57
2018-12-30T22:41:51.336Z,166.65
2018-12-30T22:44:20.704Z,154.60
2018-12-30T22:46:49.883Z,143.17
2018-12-30T22:49:19.214Z,139.43
2018-12-30T22:51:48.413Z,114.05
2018-12-30T22:54:17.604Z,106.20
2018-12-30T22:56:46.797Z,101.87
2018-12-30T22:59:16.039Z,108.63
2018-12-30T23:01:46.663Z,101.58
2018-12-30T23:04:15.861Z,100.85
2018-12-30T23:06:45.157Z,113.12
2018-12-30T23:09:14.345Z,105.72
2018-12-30T23:11:43.523Z,99.20
2018-12-30T23:14:12.820Z,124.70
2018-12-30T23:16:42.081Z,99.10
2018-12-30T23:19:11.330Z,83.30
2018-12-30T23:21:40.625Z,96.82
2018-12-30T23:24:09.808Z,114.82
2018-12-30T23:26:39.083Z,91.57
2018-12-30T23:29:08.357Z,93.20
2018-12-30T23:31:37.530Z,110.97
2018-12-30T23:34:06.845Z,111.25
2018-12-30T23:36:36.173Z,108.30
2018-12-30T23:39:07.920Z,96.72
2018-12-30T23:41:37.178Z,139.68
2018-12-30T23:44:06.399Z,131.45
2018-12-30T23:46:35.680Z,138.85
2018-12-30T23:49:04.938Z,119.72
2018-12-30T23:51:34.142Z,120.65
2018-12-30T23:54:03.307Z,129.12
2018-12-30T23:56:32.582Z,140.52
2018-12-30T23:59:02.485Z,153.15
